sensor_id;sensor_type;location;lat;lon;timestamp;P1;durP1;ratioP1;P2;durP2;ratioP2
14066;SDS011;7108;42.684;23.350;2023-04-30T00:01:47;256.73;;;86.20;;
14066;SDS011;7108;42.684;23.350;2023-04-30T00:04:13;239.80;;;86.77;;
14066;SDS011;7108;42.684;23.350;2023-04-30T00:06:38;243.00;;;85.23;;
14066;SDS011;7108;42.684;23.350;2023-04-30T00:09:04;237.37;;;86.83;;
14066;SDS011;7108;42.684;23.350;2023-04-30T00:11:29;231.00;;;82.73;;
14066;SDS011;7108;42.684;23.350;2023-04-30T00:13:55;234.87;;;83.97;;
14066;SDS011;7108;42.684;23.350;2023-04-30T00:16:21;230.10;;;81.40;;
14066;SDS011;7108;42.684;23.350;2023-04-30T00:18:46;237.93;;;85.50;;
14066;SDS011;7108;42.684;23.350;2023-04-30T00:21:12;241.17;;;83.30;;
14066;SDS011;7108;42.684;23.350;2023-04-30T00:23:37;238.83;;;85.80;;
14066;SDS011;7108;42.684;23.350;2023-04-30T00:26:03;228.80;;;82.67;;
14066;SDS011;7108;42.684;23.350;2023-04-30T00:28:28;234.13;;;83.50;;
14066;SDS011;7108;42.684;23.350;2023-04-30T00:30:54;238.83;;;81.30;;
14066;SDS011;7108;42.684;23.350;2023-04-30T00:33:19;236.90;;;84.07;;
14066;SDS011;7108;42.684;23.350;2023-04-30T00:35:45;241.50;;;82.43;;
14066;SDS011;7108;42.684;23.350;2023-04-30T00:38:11;235.30;;;82.47;;
14066;SDS011;7108;42.684;23.350;2023-04-30T00:40:36;231.13;;;81.63;;
14066;SDS011;7108;42.684;23.350;2023-04-30T00:43:03;234.17;;;84.43;;
14066;SDS011;7108;42.684;23.350;2023-04-30T00:45:29;229.30;;;81.43;;
14066;SDS011;7108;42.684;23.350;2023-04-30T00:47:54;235.80;;;82.60;;
14066;SDS011;7108;42.684;23.350;2023-04-30T00:50:21;241.87;;;83.50;;
14066;SDS011;7108;42.684;23.350;2023-04-30T00:52:46;245.03;;;82.13;;
14066;SDS011;7108;42.684;23.350;2023-04-30T00:55:12;230.20;;;79.97;;
14066;SDS011;7108;42.684;23.350;2023-04-30T00:57:38;223.80;;;79.53;;
14066;SDS011;7108;42.684;23.350;2023-04-30T01:00:05;215.63;;;77.27;;
14066;SDS011;7108;42.684;23.350;2023-04-30T01:02:38;220.50;;;81.27;;
14066;SDS011;7108;42.684;23.350;2023-04-30T01:05:05;224.97;;;81.97;;
14066;SDS011;7108;42.684;23.350;2023-04-30T01:07:32;216.77;;;76.87;;
14066;SDS011;7108;42.684;23.350;2023-04-30T01:09:59;243.33;;;82.50;;
14066;SDS011;7108;42.684;23.350;2023-04-30T01:15:37;224.30;;;78.93;;
14066;SDS011;7108;42.684;23.350;2023-04-30T01:18:14;229.90;;;78.80;;
14066;SDS011;7108;42.684;23.350;2023-04-30T01:20:53;249.80;;;81.00;;
14066;SDS011;7108;42.684;23.350;2023-04-30T01:28:43;240.40;;;82.23;;
14066;SDS011;7108;42.684;23.350;2023-04-30T01:31:14;233.07;;;77.63;;
14066;SDS011;7108;42.684;23.350;2023-04-30T01:33:42;235.07;;;78.33;;
14066;SDS011;7108;42.684;23.350;2023-04-30T01:47:19;262.30;;;83.80;;
14066;SDS011;7108;42.684;23.350;2023-04-30T01:55:10;222.50;;;78.53;;
14066;SDS011;7108;42.684;23.350;2023-04-30T01:57:45;235.57;;;81.37;;
14066;SDS011;7108;42.684;23.350;2023-04-30T02:00:19;214.83;;;76.70;;
14066;SDS011;7108;42.684;23.350;2023-04-30T02:02:45;231.07;;;78.90;;
14066;SDS011;7108;42.684;23.350;2023-04-30T02:05:10;227.97;;;80.57;;
14066;SDS011;7108;42.684;23.350;2023-04-30T02:07:40;215.20;;;78.63;;
14066;SDS011;7108;42.684;23.350;2023-04-30T02:10:08;228.50;;;78.33;;
14066;SDS011;7108;42.684;23.350;2023-04-30T02:12:36;213.73;;;77.13;;
14066;SDS011;7108;42.684;23.350;2023-04-30T02:15:02;247.80;;;80.50;;
14066;SDS011;7108;42.684;23.350;2023-04-30T02:17:28;218.10;;;77.53;;
14066;SDS011;7108;42.684;23.350;2023-04-30T02:19:57;250.20;;;80.60;;
14066;SDS011;7108;42.684;23.350;2023-04-30T02:22:23;238.63;;;80.43;;
14066;SDS011;7108;42.684;23.350;2023-04-30T02:24:48;236.77;;;80.00;;
14066;SDS011;7108;42.684;23.350;2023-04-30T02:27:14;236.23;;;80.03;;
14066;SDS011;7108;42.684;23.350;2023-04-30T02:29:40;234.60;;;80.60;;
14066;SDS011;7108;42.684;23.350;2023-04-30T02:32:05;220.33;;;77.33;;
14066;SDS011;7108;42.684;23.350;2023-04-30T02:34:30;219.73;;;78.50;;
14066;SDS011;7108;42.684;23.350;2023-04-30T02:36:56;244.87;;;82.23;;
14066;SDS011;7108;42.684;23.350;2023-04-30T02:39:21;237.57;;;80.27;;
14066;SDS011;7108;42.684;23.350;2023-04-30T02:41:47;247.53;;;81.53;;
14066;SDS011;7108;42.684;23.350;2023-04-30T02:44:12;220.53;;;77.93;;
14066;SDS011;7108;42.684;23.350;2023-04-30T02:46:37;217.70;;;78.20;;
14066;SDS011;7108;42.684;23.350;2023-04-30T02:49:03;230.93;;;78.33;;
14066;SDS011;7108;42.684;23.350;2023-04-30T02:51:28;219.53;;;79.67;;
14066;SDS011;7108;42.684;23.350;2023-04-30T02:53:54;248.57;;;82.77;;
14066;SDS011;7108;42.684;23.350;2023-04-30T02:56:19;225.00;;;78.37;;
14066;SDS011;7108;42.684;23.350;2023-04-30T02:58:45;236.30;;;80.43;;
14066;SDS011;7108;42.684;23.350;2023-04-30T03:01:10;221.33;;;79.23;;
14066;SDS011;7108;42.684;23.350;2023-04-30T03:03:36;213.70;;;77.53;;
14066;SDS011;7108;42.684;23.350;2023-04-30T03:06:01;236.97;;;82.93;;
14066;SDS011;7108;42.684;23.350;2023-04-30T03:08:27;220.63;;;77.90;;
14066;SDS011;7108;42.684;23.350;2023-04-30T03:10:52;267.60;;;83.57;;
14066;SDS011;7108;42.684;23.350;2023-04-30T03:13:18;226.23;;;79.07;;
14066;SDS011;7108;42.684;23.350;2023-04-30T03:15:46;252.80;;;82.50;;
14066;SDS011;7108;42.684;23.350;2023-04-30T03:18:11;220.23;;;79.97;;
14066;SDS011;7108;42.684;23.350;2023-04-30T03:20:37;216.13;;;77.93;;
14066;SDS011;7108;42.684;23.350;2023-04-30T03:23:02;232.50;;;79.30;;
14066;SDS011;7108;42.684;23.350;2023-04-30T03:25:28;217.00;;;79.13;;
14066;SDS011;7108;42.684;23.350;2023-04-30T03:27:53;261.93;;;82.97;;
14066;SDS011;7108;42.684;23.350;2023-04-30T03:30:18;234.80;;;81.13;;
14066;SDS011;7108;42.684;23.350;2023-04-30T03:32:44;241.03;;;79.97;;
14066;SDS011;7108;42.684;23.350;2023-04-30T03:35:10;232.87;;;81.47;;
14066;SDS011;7108;42.684;23.350;2023-04-30T03:37:35;228.30;;;80.47;;
14066;SDS011;7108;42.684;23.350;2023-04-30T03:40:01;234.03;;;79.60;;
14066;SDS011;7108;42.684;23.350;2023-04-30T03:42:26;218.63;;;80.03;;
14066;SDS011;7108;42.684;23.350;2023-04-30T03:44:51;245.37;;;82.37;;
14066;SDS011;7108;42.684;23.350;2023-04-30T03:47:17;247.83;;;83.83;;
14066;SDS011;7108;42.684;23.350;2023-04-30T03:49:42;215.30;;;80.57;;
14066;SDS011;7108;42.684;23.350;2023-04-30T03:52:08;219.37;;;78.80;;
14066;SDS011;7108;42.684;23.350;2023-04-30T03:54:33;217.87;;;80.07;;
14066;SDS011;7108;42.684;23.350;2023-04-30T03:56:59;244.97;;;81.97;;
14066;SDS011;7108;42.684;23.350;2023-04-30T03:59:27;226.80;;;79.50;;
14066;SDS011;7108;42.684;23.350;2023-04-30T04:01:53;253.77;;;81.20;;
14066;SDS011;7108;42.684;23.350;2023-04-30T04:04:19;239.23;;;82.77;;
14066;SDS011;7108;42.684;23.350;2023-04-30T04:06:45;232.03;;;80.80;;
14066;SDS011;7108;42.684;23.350;2023-04-30T04:09:10;232.90;;;80.90;;
14066;SDS011;7108;42.684;23.350;2023-04-30T04:11:35;212.10;;;76.63;;
14066;SDS011;7108;42.684;23.350;2023-04-30T04:14:01;244.23;;;82.73;;
14066;SDS011;7108;42.684;23.350;2023-04-30T04:16:26;218.60;;;77.43;;
14066;SDS011;7108;42.684;23.350;2023-04-30T04:18:52;253.10;;;80.87;;
14066;SDS011;7108;42.684;23.350;2023-04-30T04:21:17;235.07;;;79.40;;
14066;SDS011;7108;42.684;23.350;2023-04-30T04:23:43;222.93;;;76.97;;
14066;SDS011;7108;42.684;23.350;2023-04-30T04:26:08;214.93;;;78.90;;
14066;SDS011;7108;42.684;23.350;2023-04-30T04:28:34;215.40;;;77.57;;
14066;SDS011;7108;42.684;23.350;2023-04-30T04:31:00;239.97;;;81.33;;
14066;SDS011;7108;42.684;23.350;2023-04-30T04:33:27;217.57;;;80.00;;
14066;SDS011;7108;42.684;23.350;2023-04-30T04:35:52;252.70;;;82.37;;
14066;SDS011;7108;42.684;23.350;2023-04-30T04:38:18;241.40;;;80.60;;
14066;SDS011;7108;42.684;23.350;2023-04-30T04:40:50;231.53;;;79.50;;
14066;SDS011;7108;42.684;23.350;2023-04-30T04:43:19;229.87;;;80.37;;
14066;SDS011;7108;42.684;23.350;2023-04-30T04:45:44;356.53;;;138.67;;
14066;SDS011;7108;42.684;23.350;2023-04-30T04:48:11;251.03;;;89.70;;
14066;SDS011;7108;42.684;23.350;2023-04-30T04:50:36;227.53;;;85.73;;
14066;SDS011;7108;42.684;23.350;2023-04-30T04:53:02;240.47;;;84.33;;
14066;SDS011;7108;42.684;23.350;2023-04-30T04:55:27;219.60;;;78.10;;
14066;SDS011;7108;42.684;23.350;2023-04-30T04:57:52;251.60;;;82.10;;
14066;SDS011;7108;42.684;23.350;2023-04-30T05:00:18;235.97;;;83.73;;
14066;SDS011;7108;42.684;23.350;2023-04-30T05:02:46;235.80;;;80.77;;
14066;SDS011;7108;42.684;23.350;2023-04-30T05:05:11;233.33;;;80.17;;
14066;SDS011;7108;42.684;23.350;2023-04-30T05:07:37;215.80;;;77.90;;
14066;SDS011;7108;42.684;23.350;2023-04-30T05:10:02;241.53;;;83.20;;
14066;SDS011;7108;42.684;23.350;2023-04-30T05:12:28;215.97;;;79.77;;
14066;SDS011;7108;42.684;23.350;2023-04-30T05:14:53;271.03;;;84.57;;
14066;SDS011;7108;42.684;23.350;2023-04-30T05:17:19;217.57;;;77.97;;
14066;SDS011;7108;42.684;23.350;2023-04-30T05:19:44;241.80;;;83.57;;
14066;SDS011;7108;42.684;23.350;2023-04-30T05:22:11;231.77;;;84.23;;
14066;SDS011;7108;42.684;23.350;2023-04-30T05:24:37;223.93;;;82.47;;
14066;SDS011;7108;42.684;23.350;2023-04-30T05:27:02;255.57;;;87.90;;
14066;SDS011;7108;42.684;23.350;2023-04-30T05:29:29;231.70;;;82.83;;
14066;SDS011;7108;42.684;23.350;2023-04-30T05:31:54;258.53;;;84.93;;
14066;SDS011;7108;42.684;23.350;2023-04-30T05:34:19;246.03;;;85.93;;
14066;SDS011;7108;42.684;23.350;2023-04-30T05:36:45;240.53;;;82.70;;
14066;SDS011;7108;42.684;23.350;2023-04-30T05:39:10;251.87;;;89.23;;
14066;SDS011;7108;42.684;23.350;2023-04-30T05:41:36;217.73;;;78.87;;
14066;SDS011;7108;42.684;23.350;2023-04-30T05:44:01;242.40;;;81.40;;
14066;SDS011;7108;42.684;23.350;2023-04-30T05:46:28;223.33;;;83.70;;
14066;SDS011;7108;42.684;23.350;2023-04-30T05:48:54;260.63;;;84.40;;
14066;SDS011;7108;42.684;23.350;2023-04-30T05:51:20;240.37;;;84.87;;
14066;SDS011;7108;42.684;23.350;2023-04-30T05:53:45;236.60;;;84.33;;
14066;SDS011;7108;42.684;23.350;2023-04-30T05:56:10;230.63;;;80.70;;
14066;SDS011;7108;42.684;23.350;2023-04-30T05:58:36;224.90;;;79.67;;
14066;SDS011;7108;42.684;23.350;2023-04-30T06:01:03;252.50;;;81.77;;
14066;SDS011;7108;42.684;23.350;2023-04-30T06:03:29;259.43;;;86.47;;
14066;SDS011;7108;42.684;23.350;2023-04-30T06:05:55;305.03;;;89.27;;
14066;SDS011;7108;42.684;23.350;2023-04-30T06:08:21;263.43;;;87.93;;
14066;SDS011;7108;42.684;23.350;2023-04-30T06:10:46;264.27;;;86.73;;
14066;SDS011;7108;42.684;23.350;2023-04-30T06:13:13;284.50;;;91.43;;
14066;SDS011;7108;42.684;23.350;2023-04-30T06:15:39;263.43;;;87.83;;
14066;SDS011;7108;42.684;23.350;2023-04-30T06:18:05;257.97;;;86.20;;
14066;SDS011;7108;42.684;23.350;2023-04-30T06:20:31;267.73;;;87.13;;
14066;SDS011;7108;42.684;23.350;2023-04-30T06:22:56;292.33;;;88.77;;
14066;SDS011;7108;42.684;23.350;2023-04-30T06:25:22;264.03;;;86.00;;
14066;SDS011;7108;42.684;23.350;2023-04-30T06:27:48;264.37;;;88.07;;
14066;SDS011;7108;42.684;23.350;2023-04-30T06:30:15;276.43;;;87.43;;
14066;SDS011;7108;42.684;23.350;2023-04-30T06:32:41;270.63;;;87.53;;
14066;SDS011;7108;42.684;23.350;2023-04-30T06:35:06;263.27;;;89.93;;
14066;SDS011;7108;42.684;23.350;2023-04-30T06:37:32;266.93;;;90.57;;
14066;SDS011;7108;42.684;23.350;2023-04-30T06:40:01;282.20;;;87.73;;
14066;SDS011;7108;42.684;23.350;2023-04-30T06:42:29;259.00;;;86.30;;
14066;SDS011;7108;42.684;23.350;2023-04-30T06:44:58;297.77;;;90.53;;
14066;SDS011;7108;42.684;23.350;2023-04-30T06:47:25;284.50;;;92.67;;
14066;SDS011;7108;42.684;23.350;2023-04-30T06:49:50;285.43;;;94.67;;
14066;SDS011;7108;42.684;23.350;2023-04-30T06:52:16;274.43;;;95.07;;
14066;SDS011;7108;42.684;23.350;2023-04-30T06:54:41;251.30;;;90.00;;
14066;SDS011;7108;42.684;23.350;2023-04-30T06:57:07;276.80;;;95.53;;
14066;SDS011;7108;42.684;23.350;2023-04-30T06:59:33;275.20;;;97.20;;
14066;SDS011;7108;42.684;23.350;2023-04-30T07:01:58;275.73;;;93.53;;
14066;SDS011;7108;42.684;23.350;2023-04-30T07:04:24;231.47;;;94.17;;
14066;SDS011;7108;42.684;23.350;2023-04-30T07:06:50;252.10;;;91.60;;
14066;SDS011;7108;42.684;23.350;2023-04-30T07:09:16;257.30;;;91.93;;
14066;SDS011;7108;42.684;23.350;2023-04-30T07:11:41;231.00;;;91.60;;
14066;SDS011;7108;42.684;23.350;2023-04-30T07:14:07;245.67;;;87.70;;
14066;SDS011;7108;42.684;23.350;2023-04-30T07:16:32;229.97;;;87.30;;
14066;SDS011;7108;42.684;23.350;2023-04-30T07:18:58;277.13;;;90.90;;
14066;SDS011;7108;42.684;23.350;2023-04-30T07:21:24;271.00;;;92.77;;
14066;SDS011;7108;42.684;23.350;2023-04-30T07:23:50;233.47;;;83.13;;
14066;SDS011;7108;42.684;23.350;2023-04-30T07:26:15;237.63;;;87.90;;
14066;SDS011;7108;42.684;23.350;2023-04-30T07:28:41;229.67;;;82.87;;
14066;SDS011;7108;42.684;23.350;2023-04-30T07:31:10;245.23;;;85.77;;
14066;SDS011;7108;42.684;23.350;2023-04-30T07:33:36;234.40;;;85.80;;
14066;SDS011;7108;42.684;23.350;2023-04-30T07:36:02;227.50;;;86.47;;
14066;SDS011;7108;42.684;23.350;2023-04-30T07:38:27;253.80;;;88.60;;
14066;SDS011;7108;42.684;23.350;2023-04-30T07:40:53;266.70;;;88.80;;
14066;SDS011;7108;42.684;23.350;2023-04-30T07:43:18;257.03;;;86.03;;
14066;SDS011;7108;42.684;23.350;2023-04-30T07:45:44;230.00;;;85.53;;
14066;SDS011;7108;42.684;23.350;2023-04-30T07:48:09;223.53;;;83.57;;
14066;SDS011;7108;42.684;23.350;2023-04-30T07:50:35;262.07;;;99.50;;
14066;SDS011;7108;42.684;23.350;2023-04-30T07:53:01;301.30;;;101.80;;
14066;SDS011;7108;42.684;23.350;2023-04-30T07:55:26;263.83;;;90.73;;
14066;SDS011;7108;42.684;23.350;2023-04-30T07:57:52;267.73;;;88.47;;
14066;SDS011;7108;42.684;23.350;2023-04-30T08:00:17;242.93;;;81.97;;
14066;SDS011;7108;42.684;23.350;2023-04-30T08:02:43;232.13;;;81.23;;
14066;SDS011;7108;42.684;23.350;2023-04-30T08:05:09;236.73;;;85.70;;
14066;SDS011;7108;42.684;23.350;2023-04-30T08:07:35;238.77;;;86.13;;
14066;SDS011;7108;42.684;23.350;2023-04-30T08:10:01;229.63;;;82.73;;
14066;SDS011;7108;42.684;23.350;2023-04-30T08:12:26;236.43;;;84.67;;
14066;SDS011;7108;42.684;23.350;2023-04-30T08:15:25;259.00;;;86.33;;
14066;SDS011;7108;42.684;23.350;2023-04-30T08:17:46;222.97;;;83.67;;
14066;SDS011;7108;42.684;23.350;2023-04-30T08:20:13;225.47;;;83.40;;
14066;SDS011;7108;42.684;23.350;2023-04-30T08:22:38;231.73;;;87.33;;
14066;SDS011;7108;42.684;23.350;2023-04-30T08:25:04;274.60;;;90.07;;
14066;SDS011;7108;42.684;23.350;2023-04-30T08:27:30;248.97;;;89.53;;
14066;SDS011;7108;42.684;23.350;2023-04-30T08:29:56;266.37;;;90.37;;
14066;SDS011;7108;42.684;23.350;2023-04-30T08:32:22;246.50;;;86.87;;
14066;SDS011;7108;42.684;23.350;2023-04-30T08:34:47;231.00;;;85.10;;
14066;SDS011;7108;42.684;23.350;2023-04-30T08:37:13;230.97;;;83.10;;
14066;SDS011;7108;42.684;23.350;2023-04-30T08:39:38;248.40;;;87.30;;
14066;SDS011;7108;42.684;23.350;2023-04-30T08:42:06;266.80;;;88.93;;
14066;SDS011;7108;42.684;23.350;2023-04-30T08:44:33;248.90;;;88.17;;
14066;SDS011;7108;42.684;23.350;2023-04-30T08:47:03;279.83;;;93.67;;
14066;SDS011;7108;42.684;23.350;2023-04-30T08:49:31;244.57;;;89.30;;
14066;SDS011;7108;42.684;23.350;2023-04-30T08:51:57;256.17;;;86.33;;
14066;SDS011;7108;42.684;23.350;2023-04-30T08:54:27;248.87;;;88.30;;
14066;SDS011;7108;42.684;23.350;2023-04-30T08:56:56;259.93;;;88.77;;
14066;SDS011;7108;42.684;23.350;2023-04-30T08:59:21;249.13;;;91.23;;
14066;SDS011;7108;42.684;23.350;2023-04-30T09:01:47;225.60;;;89.17;;
14066;SDS011;7108;42.684;23.350;2023-04-30T09:04:12;232.87;;;94.57;;
14066;SDS011;7108;42.684;23.350;2023-04-30T09:06:38;237.17;;;91.87;;
14066;SDS011;7108;42.684;23.350;2023-04-30T09:09:07;283.87;;;103.20;;
14066;SDS011;7108;42.684;23.350;2023-04-30T09:11:35;256.37;;;100.97;;
14066;SDS011;7108;42.684;23.350;2023-04-30T09:14:01;269.33;;;99.30;;
14066;SDS011;7108;42.684;23.350;2023-04-30T09:16:27;254.60;;;99.20;;
14066;SDS011;7108;42.684;23.350;2023-04-30T09:18:57;254.80;;;102.13;;
14066;SDS011;7108;42.684;23.350;2023-04-30T09:21:29;262.73;;;106.93;;
14066;SDS011;7108;42.684;23.350;2023-04-30T09:23:57;248.57;;;102.87;;
14066;SDS011;7108;42.684;23.350;2023-04-30T09:26:26;253.80;;;103.80;;
14066;SDS011;7108;42.684;23.350;2023-04-30T09:28:59;285.13;;;108.27;;
14066;SDS011;7108;42.684;23.350;2023-04-30T09:31:31;244.90;;;101.83;;
14066;SDS011;7108;42.684;23.350;2023-04-30T09:33:57;284.43;;;107.70;;
14066;SDS011;7108;42.684;23.350;2023-04-30T09:36:22;265.77;;;106.30;;
14066;SDS011;7108;42.684;23.350;2023-04-30T09:38:48;253.73;;;105.70;;
14066;SDS011;7108;42.684;23.350;2023-04-30T09:41:23;246.27;;;104.30;;
14066;SDS011;7108;42.684;23.350;2023-04-30T09:43:51;251.70;;;104.20;;
14066;SDS011;7108;42.684;23.350;2023-04-30T09:46:17;252.23;;;104.30;;
14066;SDS011;7108;42.684;23.350;2023-04-30T09:48:43;316.10;;;139.97;;
14066;SDS011;7108;42.684;23.350;2023-04-30T09:51:09;288.70;;;116.37;;
14066;SDS011;7108;42.684;23.350;2023-04-30T09:53:36;261.63;;;104.80;;
14066;SDS011;7108;42.684;23.350;2023-04-30T09:56:04;283.07;;;108.63;;
14066;SDS011;7108;42.684;23.350;2023-04-30T09:58:34;252.37;;;110.53;;
14066;SDS011;7108;42.684;23.350;2023-04-30T10:01:01;289.10;;;113.07;;
14066;SDS011;7108;42.684;23.350;2023-04-30T10:03:34;254.97;;;104.17;;
14066;SDS011;7108;42.684;23.350;2023-04-30T10:06:03;271.97;;;107.07;;
14066;SDS011;7108;42.684;23.350;2023-04-30T10:08:42;257.53;;;106.63;;
14066;SDS011;7108;42.684;23.350;2023-04-30T10:11:12;270.87;;;105.90;;
14066;SDS011;7108;42.684;23.350;2023-04-30T10:13:44;254.67;;;107.30;;
14066;SDS011;7108;42.684;23.350;2023-04-30T10:19:42;287.03;;;116.13;;
14066;SDS011;7108;42.684;23.350;2023-04-30T10:22:12;249.47;;;106.83;;
14066;SDS011;7108;42.684;23.350;2023-04-30T10:24:38;248.80;;;108.73;;
14066;SDS011;7108;42.684;23.350;2023-04-30T10:27:05;269.87;;;111.33;;
14066;SDS011;7108;42.684;23.350;2023-04-30T10:29:31;259.00;;;112.63;;
14066;SDS011;7108;42.684;23.350;2023-04-30T10:31:57;247.43;;;104.67;;
14066;SDS011;7108;42.684;23.350;2023-04-30T10:36:59;242.93;;;97.43;;
14066;SDS011;7108;42.684;23.350;2023-04-30T10:39:29;241.20;;;95.07;;
14066;SDS011;7108;42.684;23.350;2023-04-30T10:42:04;242.10;;;90.60;;
14066;SDS011;7108;42.684;23.350;2023-04-30T10:44:40;249.63;;;91.03;;
14066;SDS011;7108;42.684;23.350;2023-04-30T10:47:06;265.93;;;89.80;;
14066;SDS011;7108;42.684;23.350;2023-04-30T10:49:31;249.07;;;88.57;;
14066;SDS011;7108;42.684;23.350;2023-04-30T10:52:01;259.27;;;91.03;;
14066;SDS011;7108;42.684;23.350;2023-04-30T10:54:31;231.83;;;90.50;;
14066;SDS011;7108;42.684;23.350;2023-04-30T10:57:08;255.27;;;95.23;;
14066;SDS011;7108;42.684;23.350;2023-04-30T10:59:40;254.40;;;94.90;;
14066;SDS011;7108;42.684;23.350;2023-04-30T11:02:09;267.13;;;97.70;;
14066;SDS011;7108;42.684;23.350;2023-04-30T11:04:52;251.13;;;95.50;;
14066;SDS011;7108;42.684;23.350;2023-04-30T11:07:32;255.87;;;99.47;;
14066;SDS011;7108;42.684;23.350;2023-04-30T11:09:59;266.30;;;99.27;;
14066;SDS011;7108;42.684;23.350;2023-04-30T11:12:28;272.60;;;104.90;;
14066;SDS011;7108;42.684;23.350;2023-04-30T11:15:00;264.03;;;102.17;;
14066;SDS011;7108;42.684;23.350;2023-04-30T11:17:30;279.00;;;108.80;;
14066;SDS011;7108;42.684;23.350;2023-04-30T11:19:58;274.53;;;105.63;;
14066;SDS011;7108;42.684;23.350;2023-04-30T11:22:25;272.53;;;109.90;;
14066;SDS011;7108;42.684;23.350;2023-04-30T11:25:09;253.40;;;104.73;;
14066;SDS011;7108;42.684;23.350;2023-04-30T11:27:43;288.47;;;109.67;;
14066;SDS011;7108;42.684;23.350;2023-04-30T11:30:10;302.27;;;112.37;;
14066;SDS011;7108;42.684;23.350;2023-04-30T11:32:39;290.90;;;111.33;;
14066;SDS011;7108;42.684;23.350;2023-04-30T11:35:06;299.57;;;112.23;;
14066;SDS011;7108;42.684;23.350;2023-04-30T11:37:43;271.93;;;109.97;;
14066;SDS011;7108;42.684;23.350;2023-04-30T11:40:10;291.53;;;104.90;;
14066;SDS011;7108;42.684;23.350;2023-04-30T11:42:37;293.77;;;102.57;;
14066;SDS011;7108;42.684;23.350;2023-04-30T11:45:13;315.70;;;103.37;;
14066;SDS011;7108;42.684;23.350;2023-04-30T11:47:45;261.33;;;101.20;;
14066;SDS011;7108;42.684;23.350;2023-04-30T11:50:15;267.07;;;100.30;;
14066;SDS011;7108;42.684;23.350;2023-04-30T11:52:48;263.93;;;101.90;;
14066;SDS011;7108;42.684;23.350;2023-04-30T11:55:18;265.17;;;101.40;;
14066;SDS011;7108;42.684;23.350;2023-04-30T11:57:49;270.37;;;102.70;;
14066;SDS011;7108;42.684;23.350;2023-04-30T12:00:17;286.80;;;103.03;;
14066;SDS011;7108;42.684;23.350;2023-04-30T12:02:45;265.10;;;100.30;;
14066;SDS011;7108;42.684;23.350;2023-04-30T12:05:16;304.57;;;104.53;;
14066;SDS011;7108;42.684;23.350;2023-04-30T12:07:49;270.20;;;101.47;;
14066;SDS011;7108;42.684;23.350;2023-04-30T12:10:20;278.30;;;101.87;;
14066;SDS011;7108;42.684;23.350;2023-04-30T12:12:46;292.47;;;103.23;;
14066;SDS011;7108;42.684;23.350;2023-04-30T12:17:40;262.73;;;105.03;;
14066;SDS011;7108;42.684;23.350;2023-04-30T12:20:07;284.20;;;106.60;;
14066;SDS011;7108;42.684;23.350;2023-04-30T12:22:33;262.13;;;103.10;;
14066;SDS011;7108;42.684;23.350;2023-04-30T12:25:00;300.33;;;106.53;;
14066;SDS011;7108;42.684;23.350;2023-04-30T12:27:31;282.47;;;107.17;;
14066;SDS011;7108;42.684;23.350;2023-04-30T12:30:08;278.13;;;101.77;;
14066;SDS011;7108;42.684;23.350;2023-04-30T12:32:53;271.63;;;102.03;;
14066;SDS011;7108;42.684;23.350;2023-04-30T12:35:21;284.60;;;103.60;;
14066;SDS011;7108;42.684;23.350;2023-04-30T12:37:49;279.57;;;102.40;;
14066;SDS011;7108;42.684;23.350;2023-04-30T12:40:17;279.63;;;99.37;;
14066;SDS011;7108;42.684;23.350;2023-04-30T12:42:43;271.63;;;97.90;;
14066;SDS011;7108;42.684;23.350;2023-04-30T12:45:11;314.03;;;101.40;;
14066;SDS011;7108;42.684;23.350;2023-04-30T12:47:40;286.30;;;100.77;;
14066;SDS011;7108;42.684;23.350;2023-04-30T12:52:37;280.13;;;96.03;;
14066;SDS011;7108;42.684;23.350;2023-04-30T12:58:12;304.90;;;102.03;;
14066;SDS011;7108;42.684;23.350;2023-04-30T13:00:42;290.03;;;98.27;;
14066;SDS011;7108;42.684;23.350;2023-04-30T13:03:14;281.07;;;96.50;;
14066;SDS011;7108;42.684;23.350;2023-04-30T13:05:41;286.00;;;99.33;;
14066;SDS011;7108;42.684;23.350;2023-04-30T13:08:13;297.20;;;101.13;;
14066;SDS011;7108;42.684;23.350;2023-04-30T13:10:39;280.83;;;98.83;;
14066;SDS011;7108;42.684;23.350;2023-04-30T13:13:05;270.20;;;92.43;;
14066;SDS011;7108;42.684;23.350;2023-04-30T13:15:30;278.00;;;99.20;;
14066;SDS011;7108;42.684;23.350;2023-04-30T13:17:56;274.27;;;97.57;;
14066;SDS011;7108;42.684;23.350;2023-04-30T13:20:22;284.93;;;105.53;;
14066;SDS011;7108;42.684;23.350;2023-04-30T13:22:49;279.20;;;100.70;;
14066;SDS011;7108;42.684;23.350;2023-04-30T13:25:15;277.60;;;97.17;;
14066;SDS011;7108;42.684;23.350;2023-04-30T13:27:41;289.77;;;101.93;;
14066;SDS011;7108;42.684;23.350;2023-04-30T13:30:07;344.13;;;130.40;;
14066;SDS011;7108;42.684;23.350;2023-04-30T13:32:33;237.00;;;95.20;;
14066;SDS011;7108;42.684;23.350;2023-04-30T13:34:59;251.90;;;100.30;;
14066;SDS011;7108;42.684;23.350;2023-04-30T13:37:27;276.73;;;100.57;;
14066;SDS011;7108;42.684;23.350;2023-04-30T13:39:55;273.83;;;99.17;;
14066;SDS011;7108;42.684;23.350;2023-04-30T13:42:21;284.63;;;105.83;;
14066;SDS011;7108;42.684;23.350;2023-04-30T13:44:47;278.87;;;102.37;;
14066;SDS011;7108;42.684;23.350;2023-04-30T13:47:14;282.30;;;102.70;;
14066;SDS011;7108;42.684;23.350;2023-04-30T13:49:40;290.23;;;106.07;;
14066;SDS011;7108;42.684;23.350;2023-04-30T13:52:06;285.40;;;103.70;;
14066;SDS011;7108;42.684;23.350;2023-04-30T13:54:31;262.30;;;103.53;;
14066;SDS011;7108;42.684;23.350;2023-04-30T13:56:57;281.10;;;108.50;;
14066;SDS011;7108;42.684;23.350;2023-04-30T13:59:27;273.60;;;104.07;;
14066;SDS011;7108;42.684;23.350;2023-04-30T14:01:52;283.50;;;108.53;;
14066;SDS011;7108;42.684;23.350;2023-04-30T14:04:18;291.50;;;107.30;;
14066;SDS011;7108;42.684;23.350;2023-04-30T14:06:44;282.10;;;105.13;;
14066;SDS011;7108;42.684;23.350;2023-04-30T14:09:09;291.37;;;106.93;;
14066;SDS011;7108;42.684;23.350;2023-04-30T14:11:35;284.90;;;103.70;;
14066;SDS011;7108;42.684;23.350;2023-04-30T14:14:01;295.20;;;103.57;;
14066;SDS011;7108;42.684;23.350;2023-04-30T14:16:30;283.73;;;101.30;;
14066;SDS011;7108;42.684;23.350;2023-04-30T14:18:56;268.87;;;104.03;;
14066;SDS011;7108;42.684;23.350;2023-04-30T14:21:21;274.60;;;110.10;;
14066;SDS011;7108;42.684;23.350;2023-04-30T14:23:47;274.60;;;108.40;;
14066;SDS011;7108;42.684;23.350;2023-04-30T14:26:12;303.67;;;110.60;;
14066;SDS011;7108;42.684;23.350;2023-04-30T14:28:38;284.70;;;109.83;;
14066;SDS011;7108;42.684;23.350;2023-04-30T14:31:04;296.60;;;110.90;;
14066;SDS011;7108;42.684;23.350;2023-04-30T14:33:30;278.57;;;109.10;;
14066;SDS011;7108;42.684;23.350;2023-04-30T14:35:56;281.53;;;104.87;;
14066;SDS011;7108;42.684;23.350;2023-04-30T14:38:24;292.87;;;104.13;;
14066;SDS011;7108;42.684;23.350;2023-04-30T14:40:50;295.73;;;105.37;;
14066;SDS011;7108;42.684;23.350;2023-04-30T14:43:15;318.60;;;111.53;;
14066;SDS011;7108;42.684;23.350;2023-04-30T14:45:41;261.90;;;103.40;;